Memphis (MEM/KMEM)

Map

Information

Location
Memphis, TN
Local Time
17:28 / 5:28 pm
GMT Time
23:28 / 11:28 pm
Gates
C22
No FAA reported delays
METAR KMEM 182254Z 21005KT 10SM CLR 01/M09 A3041 RMK AO2 SLP301 T00061094 $
TAF KMEM 182105Z 1821/1924 21008KT P6SM SKC FM182300 20004KT P6SM SKC FM191500 21008KT P6SM SKC